Malone, Florida
Current Conditions -  °F | °C
As of 8:53 AM on Thursday 30 Oct 2014 (Local Time) from KMAI Reporting Station
Few Clouds Few Clouds  
Wind Chill: 64°   Ceiling: Unl
Heat Index: 64°   Visibility: 10mi
Dew Point: 45°   Wind: 15mph
Humidity: 50%   Direction: 30°NNE
Pressure: 30.06"   Gusts: NA
Location:  30.96°N, 85.16°W
Report Text: KMAI 301353Z AUTO 03013KT 10SM FEW100 18/07 A3006 RMK AO2 SLP178 T01780072
Loading
Personal Weather Stations






























Interactive Weather Map
Tropical Storm Tracking
New forecast layout! Learn more

10-Day Weather Forecast

Advertisements
Track Severe Weather on mobile